Time,TemperatureF,DewpointF,PressureIn,WindDirection,WindDirectionDegrees,WindSpeedMPH,WindSpeedGustMPH,Humidity,HourlyPrecipIn,Conditions,Clouds,dailyrainin,SoftwareType,DateUTC
2013-03-13 00:03:00,34.0,27.0,-100.00,ENE,62,1.0,8.0,71,0.00,,,-99.99,,2013-03-13 04:03:00,
2013-03-13 00:13:00,33.0,25.0,-100.00,East,100,1.0,8.0,71,0.00,,,-99.99,,2013-03-13 04:13:00,
2013-03-13 00:23:00,33.0,27.0,-100.00,East,91,1.0,8.0,71,0.00,,,-99.99,,2013-03-13 04:23:00,
2013-03-13 00:32:00,33.0,27.0,-100.00,NE,48,2.0,8.0,71,0.00,,,-99.99,,2013-03-13 04:32:00,
2013-03-13 00:43:00,33.0,25.0,-100.00,NE,40,1.0,8.0,72,0.00,,,-99.99,,2013-03-13 04:43:00,
2013-03-13 00:53:00,36.0,28.0,-100.00,NE,46,2.0,8.0,73,0.00,,,-99.99,,2013-03-13 04:53:00,
2013-03-13 01:02:00,34.0,27.0,-100.00,WSW,254,2.0,8.0,72,0.00,,,-99.99,,2013-03-13 05:02:00,
2013-03-13 01:13:00,35.0,27.0,-100.00,NE,43,2.0,8.0,71,0.00,,,-99.99,,2013-03-13 05:13:00,
2013-03-13 01:22:00,34.0,27.0,-100.00,North,9,2.0,8.0,75,0.00,,,-99.99,,2013-03-13 05:22:00,
2013-03-13 01:32:00,34.0,28.0,-100.00,NNE,21,2.0,8.0,75,0.00,,,-99.99,,2013-03-13 05:32:00,
2013-03-13 01:42:00,33.0,27.0,-100.00,NNE,33,3.0,8.0,75,0.00,,,-99.99,,2013-03-13 05:42:00,
2013-03-13 01:52:00,34.0,28.0,-100.00,NE,49,2.0,8.0,76,0.00,,,-99.99,,2013-03-13 05:52:00,
2013-03-13 02:02:00,32.0,27.0,-100.00,NE,48,1.0,8.0,77,0.00,,,-99.99,,2013-03-13 06:02:00,
2013-03-13 02:13:00,38.0,32.0,-100.00,NNE,28,1.0,8.0,78,0.00,,,-99.99,,2013-03-13 06:13:00,
2013-03-13 02:23:00,35.0,30.0,-100.00,NE,36,1.0,8.0,78,0.00,,,-99.99,,2013-03-13 06:23:00,
2013-03-13 02:32:00,35.0,30.0,-100.00,NE,36,1.0,8.0,78,0.00,,,-99.99,,2013-03-13 06:32:00,
2013-03-13 02:42:00,35.0,30.0,-100.00,NE,42,1.0,8.0,78,0.00,,,-99.99,,2013-03-13 06:42:00,
2013-03-13 02:52:00,33.0,27.0,-100.00,NNE,16,2.0,8.0,77,0.00,,,-99.99,,2013-03-13 06:52:00,
2013-03-13 03:03:00,33.0,28.0,-100.00,NE,45,2.0,8.0,78,0.00,,,-99.99,,2013-03-13 07:03:00,
2013-03-13 03:12:00,32.0,27.0,-100.00,NE,45,2.0,8.0,78,0.00,,,-99.99,,2013-03-13 07:12:00,
2013-03-13 03:23:00,32.0,27.0,-100.00,NE,45,2.0,8.0,78,0.00,,,-99.99,,2013-03-13 07:23:00,
2013-03-13 03:33:00,31.0,25.0,-100.00,NE,46,2.0,8.0,77,0.00,,,-99.99,,2013-03-13 07:33:00,
2013-03-13 03:42:00,32.0,27.0,-100.00,NNE,32,2.0,8.0,77,0.00,,,-99.99,,2013-03-13 07:42:00,
2013-03-13 03:52:00,34.0,30.0,-100.00,ENE,66,2.0,8.0,81,0.00,,,-99.99,,2013-03-13 07:52:00,
2013-03-13 04:03:00,34.0,28.0,-100.00,NNE,33,1.0,8.0,80,0.00,,,-99.99,,2013-03-13 08:03:00,
2013-03-13 04:12:00,34.0,30.0,-100.00,NE,40,1.0,8.0,81,0.00,,,-99.99,,2013-03-13 08:12:00,
2013-03-13 04:23:00,31.0,27.0,-100.00,NE,39,1.0,8.0,80,0.00,,,-99.99,,2013-03-13 08:23:00,
2013-03-13 04:32:00,32.0,28.0,-100.00,NE,45,1.0,8.0,81,0.00,,,-99.99,,2013-03-13 08:32:00,
2013-03-13 04:43:00,32.0,28.0,-100.00,NE,38,0.0,8.0,84,0.00,,,-99.99,,2013-03-13 08:43:00,
2013-03-13 04:53:00,30.0,27.0,-100.00,NE,39,0.0,8.0,81,0.00,,,-99.99,,2013-03-13 08:53:00,
2013-03-13 05:02:00,28.0,25.0,-100.00,NNE,26,1.0,8.0,82,0.00,,,-99.99,,2013-03-13 09:02:00,
2013-03-13 05:13:00,34.0,30.0,-100.00,NNE,16,1.0,8.0,84,0.00,,,-99.99,,2013-03-13 09:13:00,
2013-03-13 05:23:00,34.0,30.0,-100.00,ENE,62,2.0,8.0,84,0.00,,,-99.99,,2013-03-13 09:23:00,
2013-03-13 05:32:00,32.0,28.0,-100.00,ENE,70,2.0,8.0,82,0.00,,,-99.99,,2013-03-13 09:32:00,
2013-03-13 05:42:00,31.0,27.0,-100.00,ENE,66,2.0,8.0,81,4.53,,,-99.99,,2013-03-13 09:42:00,
2013-03-13 05:52:00,30.0,27.0,-100.00,East,81,2.0,8.0,84,1.14,,,-99.99,,2013-03-13 09:52:00,
2013-03-13 06:02:00,32.0,28.0,-100.00,NE,52,2.0,8.0,84,2.83,,,-99.99,,2013-03-13 10:02:00,
2013-03-13 06:12:00,30.0,27.0,-100.00,NNE,33,3.0,8.0,86,0.00,,,-99.99,,2013-03-13 10:12:00,
2013-03-13 06:22:00,32.0,30.0,-100.00,NE,40,4.0,8.0,89,0.00,,,-99.99,,2013-03-13 10:22:00,
2013-03-13 06:32:00,34.0,32.0,-100.00,NE,50,5.0,8.0,86,0.00,,,-99.99,,2013-03-13 10:32:00,
2013-03-13 06:42:00,32.0,30.0,-100.00,NNE,25,5.0,8.0,88,0.00,,,-99.99,,2013-03-13 10:42:00,
2013-03-13 06:52:00,33.0,30.0,-100.00,NE,43,5.0,8.0,86,0.00,,,-99.99,,2013-03-13 10:52:00,
2013-03-13 07:02:00,34.0,30.0,-100.00,ENE,59,2.0,8.0,86,0.00,,,-99.99,,2013-03-13 11:02:00,
2013-03-13 07:12:00,33.0,30.0,-100.00,ENE,63,2.0,8.0,86,0.00,,,-99.99,,2013-03-13 11:12:00,
2013-03-13 07:22:00,31.0,28.0,-100.00,ENE,60,2.0,8.0,85,0.00,,,-99.99,,2013-03-13 11:22:00,
2013-03-13 07:32:00,33.0,30.0,-100.00,NE,36,3.0,8.0,86,0.00,,,-99.99,,2013-03-13 11:32:00,
2013-03-13 07:42:00,32.0,30.0,-100.00,NE,36,2.0,8.0,86,0.00,,,-99.99,,2013-03-13 11:42:00,
2013-03-13 07:52:00,32.0,28.0,-100.00,NE,46,2.0,8.0,85,0.00,,,-99.99,,2013-03-13 11:52:00,
2013-03-13 08:02:00,32.0,28.0,-100.00,ENE,74,2.0,8.0,85,0.00,,,-99.99,,2013-03-13 12:02:00,
2013-03-13 08:12:00,31.0,28.0,-100.00,NE,53,2.0,8.0,85,0.00,,,-99.99,,2013-03-13 12:12:00,
2013-03-13 08:22:00,31.0,28.0,-100.00,NE,46,2.0,8.0,85,0.00,,,-99.99,,2013-03-13 12:22:00,
2013-03-13 08:32:00,32.0,28.0,-100.00,NE,50,2.0,8.0,85,0.00,,,-99.99,,2013-03-13 12:32:00,
2013-03-13 08:42:00,31.0,28.0,-100.00,ESE,114,1.0,8.0,85,0.00,,,-99.99,,2013-03-13 12:42:00,
2013-03-13 08:52:00,32.0,28.0,-100.00,ENE,67,1.0,8.0,84,0.00,,,-99.99,,2013-03-13 12:52:00,
2013-03-13 09:02:00,31.0,28.0,-100.00,NE,55,2.0,8.0,84,0.00,,,-99.99,,2013-03-13 13:02:00,
2013-03-13 09:12:00,32.0,28.0,-100.00,NE,42,2.0,8.0,82,0.00,,,-99.99,,2013-03-13 13:12:00,
2013-03-13 09:22:00,35.0,30.0,-100.00,East,94,3.0,8.0,82,0.00,,,-99.99,,2013-03-13 13:22:00,
2013-03-13 09:33:00,34.0,30.0,-100.00,ENE,64,2.0,8.0,84,1.14,,,-99.99,,2013-03-13 13:33:00,
2013-03-13 09:43:00,31.0,28.0,-100.00,ESE,103,5.0,8.0,88,26.65,,,-99.99,,2013-03-13 13:43:00,
2013-03-13 09:52:00,32.0,30.0,-100.00,East,83,3.0,8.0,91,0.00,,,-99.99,,2013-03-13 13:52:00,
2013-03-13 10:02:00,30.0,28.0,-100.00,ENE,69,4.0,8.0,91,1.14,,,-99.99,,2013-03-13 14:02:00,
2013-03-13 10:12:00,31.0,28.0,-100.00,East,96,4.0,8.0,90,0.00,,,-99.99,,2013-03-13 14:12:00,
2013-03-13 10:22:00,31.0,30.0,-100.00,East,87,5.0,8.0,89,0.00,,,-99.99,,2013-03-13 14:22:00,
2013-03-13 10:33:00,31.0,28.0,-100.00,ESE,115,6.0,10.0,85,10.79,,,-99.99,,2013-03-13 14:33:00,
2013-03-13 10:42:00,30.0,27.0,-100.00,ESE,110,4.0,10.0,85,0.00,,,-99.99,,2013-03-13 14:42:00,
2013-03-13 10:52:00,32.0,28.0,-100.00,ESE,108,6.0,10.0,81,0.00,,,-99.99,,2013-03-13 14:52:00,
2013-03-13 11:03:00,31.0,27.0,-100.00,ENE,72,7.0,10.0,77,0.00,,,-99.99,,2013-03-13 15:03:00,
2013-03-13 11:12:00,33.0,27.0,-100.00,East,87,6.0,10.0,76,0.00,,,-99.99,,2013-03-13 15:12:00,
2013-03-13 11:22:00,34.0,28.0,-100.00,SSE,153,6.0,10.0,77,0.00,,,-99.99,,2013-03-13 15:22:00,
2013-03-13 11:32:00,32.0,28.0,-100.00,ESE,108,9.0,12.0,82,21.54,,,-99.99,,2013-03-13 15:32:00,
2013-03-13 11:43:00,32.0,30.0,-100.00,SE,128,9.0,14.0,89,1.14,,,-99.99,,2013-03-13 15:43:00,
2013-03-13 11:52:00,32.0,28.0,-100.00,SE,131,7.0,14.0,86,0.00,,,-99.99,,2013-03-13 15:52:00,
2013-03-13 12:03:00,34.0,30.0,-100.00,SE,145,6.0,14.0,84,0.00,,,-99.99,,2013-03-13 16:03:00,
2013-03-13 12:12:00,33.0,30.0,-100.00,ESE,115,6.0,14.0,86,4.53,,,-99.99,,2013-03-13 16:12:00,
2013-03-13 12:22:00,31.0,30.0,-100.00,SSE,148,6.0,14.0,89,0.00,,,-99.99,,2013-03-13 16:22:00,
2013-03-13 12:32:00,32.0,30.0,-100.00,SE,135,6.0,14.0,88,7.36,,,-99.99,,2013-03-13 16:32:00,
2013-03-13 12:42:00,31.0,28.0,-100.00,SE,132,7.0,14.0,89,31.18,,,-99.99,,2013-03-13 16:42:00,
2013-03-13 12:52:00,30.0,28.0,-100.00,SE,128,5.0,14.0,91,2.83,,,-99.99,,2013-03-13 16:52:00,
2013-03-13 13:03:00,31.0,30.0,-100.00,East,94,5.0,14.0,93,0.00,,,-99.99,,2013-03-13 17:03:00,
2013-03-13 13:12:00,32.0,30.0,-100.00,SE,124,6.0,14.0,90,0.00,,,-99.99,,2013-03-13 17:12:00,
2013-03-13 13:23:00,31.0,28.0,-100.00,SSE,158,4.0,14.0,88,0.00,,,-99.99,,2013-03-13 17:23:00,
2013-03-13 13:33:00,29.0,28.0,-100.00,ESE,111,6.0,14.0,91,1.14,,,-99.99,,2013-03-13 17:33:00,
2013-03-13 13:42:00,29.0,28.0,-100.00,ESE,110,6.0,14.0,93,-99.99,,,-99.99,,2013-03-13 17:42:00,
2013-03-13 13:53:00,28.0,27.0,-100.00,SE,146,11.0,14.0,91,0.00,,,-99.99,,2013-03-13 17:53:00,
2013-03-13 14:02:00,28.0,27.0,-100.00,ESE,118,9.0,14.0,91,0.00,,,-99.99,,2013-03-13 18:02:00,
2013-03-13 14:13:00,29.0,27.0,-100.00,East,98,9.0,14.0,90,6.22,,,-99.99,,2013-03-13 18:13:00,
2013-03-13 14:22:00,29.0,27.0,-100.00,ESE,107,9.0,14.0,89,1.14,,,-99.99,,2013-03-13 18:22:00,
2013-03-13 14:33:00,28.0,27.0,-100.00,ESE,108,9.0,14.0,90,0.00,,,-99.99,,2013-03-13 18:33:00,
2013-03-13 14:42:00,30.0,27.0,-100.00,ESE,117,10.0,14.0,82,0.00,,,-99.99,,2013-03-13 18:42:00,
2013-03-13 14:52:00,30.0,25.0,-100.00,ESE,108,9.0,14.0,75,0.00,,,-99.99,,2013-03-13 18:52:00,
2013-03-13 15:03:00,30.0,21.0,-100.00,ESE,103,11.0,14.0,68,0.00,,,-99.99,,2013-03-13 19:03:00,
2013-03-13 15:12:00,31.0,21.0,-100.00,ESE,122,10.0,14.0,66,0.00,,,-99.99,,2013-03-13 19:12:00,
2013-03-13 15:22:00,31.0,25.0,-100.00,SE,125,9.0,14.0,71,0.00,,,-99.99,,2013-03-13 19:22:00,
2013-03-13 15:32:00,32.0,25.0,-100.00,SE,135,8.0,14.0,71,0.00,,,-99.99,,2013-03-13 19:32:00,
2013-03-13 15:43:00,32.0,23.0,-100.00,East,94,11.0,14.0,67,0.00,,,-99.99,,2013-03-13 19:43:00,
2013-03-13 15:52:00,29.0,21.0,-100.00,SE,134,12.0,17.0,69,0.00,,,-99.99,,2013-03-13 19:52:00,
2013-03-13 16:02:00,29.0,21.0,-100.00,ESE,114,10.0,17.0,68,0.00,,,-99.99,,2013-03-13 20:02:00,
2013-03-13 16:12:00,31.0,23.0,-100.00,ESE,118,10.0,17.0,66,0.00,,,-99.99,,2013-03-13 20:12:00,
2013-03-13 16:22:00,29.0,21.0,-100.00,ESE,121,8.0,17.0,68,0.00,,,-99.99,,2013-03-13 20:22:00,
2013-03-13 16:32:00,31.0,23.0,-100.00,SSE,151,10.0,17.0,67,0.00,,,-99.99,,2013-03-13 20:32:00,
2013-03-13 16:42:00,30.0,25.0,-100.00,ESE,117,12.0,17.0,77,10.79,,,-99.99,,2013-03-13 20:42:00,
2013-03-13 16:52:00,30.0,27.0,-100.00,SE,124,8.0,17.0,80,2.83,,,-99.99,,2013-03-13 20:52:00,
2013-03-13 17:02:00,29.0,27.0,-100.00,ESE,120,6.0,17.0,88,4.53,,,-99.99,,2013-03-13 21:02:00,
2013-03-13 17:12:00,27.0,25.0,-100.00,SE,124,7.0,17.0,89,21.54,,,-99.99,,2013-03-13 21:12:00,
2013-03-13 17:22:00,26.0,25.0,-100.00,SE,146,6.0,6.0,90,7.36,,,-99.99,,2013-03-13 21:22:00,
2013-03-13 17:33:00,27.0,25.0,-100.00,ESE,118,8.0,12.0,91,4.53,,,-99.99,,2013-03-13 21:33:00,
2013-03-13 17:42:00,27.0,25.0,-100.00,East,98,6.0,12.0,91,20.39,,,-99.99,,2013-03-13 21:42:00,
2013-03-13 17:52:00,26.0,25.0,-100.00,SE,127,7.0,12.0,91,14.17,,,-99.99,,2013-03-13 21:52:00,
2013-03-13 18:02:00,27.0,27.0,-100.00,SE,125,6.0,12.0,93,0.00,,,-99.99,,2013-03-13 22:02:00,
2013-03-13 18:12:00,27.0,25.0,-100.00,SE,138,8.0,12.0,90,0.00,,,-99.99,,2013-03-13 22:12:00,
2013-03-13 18:22:00,27.0,25.0,-100.00,SE,127,8.0,12.0,89,0.00,,,-99.99,,2013-03-13 22:22:00,
2013-03-13 18:32:00,27.0,25.0,-100.00,ESE,111,6.0,12.0,88,0.00,,,-99.99,,2013-03-13 22:32:00,
2013-03-13 18:42:00,28.0,25.0,-100.00,SE,125,7.0,12.0,82,0.00,,,-99.99,,2013-03-13 22:42:00,
2013-03-13 18:52:00,27.0,23.0,-100.00,SE,125,7.0,12.0,81,0.00,,,-99.99,,2013-03-13 22:52:00,
2013-03-13 19:02:00,27.0,23.0,-100.00,ESE,118,7.0,12.0,80,0.00,,,-99.99,,2013-03-13 23:02:00,
2013-03-13 19:12:00,27.0,23.0,-100.00,SE,141,7.0,12.0,80,1.14,,,-99.99,,2013-03-13 23:12:00,
2013-03-13 19:22:00,28.0,25.0,-100.00,South,184,6.0,12.0,81,0.00,,,-99.99,,2013-03-13 23:22:00,
2013-03-13 19:32:00,28.0,25.0,-100.00,South,177,7.0,12.0,85,0.00,,,-99.99,,2013-03-13 23:32:00,
2013-03-13 19:42:00,27.0,25.0,-100.00,SE,136,7.0,12.0,85,0.00,,,-99.99,,2013-03-13 23:42:00,
2013-03-13 19:52:00,28.0,23.0,-100.00,ESE,112,6.0,12.0,82,0.00,,,-99.99,,2013-03-13 23:52:00,
2013-03-13 20:02:00,28.0,23.0,-100.00,SE,142,7.0,12.0,81,0.00,,,-99.99,,2013-03-14 00:02:00,
2013-03-13 20:13:00,27.0,23.0,-100.00,SE,134,7.0,12.0,81,1.14,,,-99.99,,2013-03-14 00:13:00,
2013-03-13 20:22:00,26.0,23.0,-100.00,SE,129,6.0,12.0,86,6.22,,,-99.99,,2013-03-14 00:22:00,
2013-03-13 20:32:00,27.0,25.0,-100.00,East,100,7.0,12.0,86,0.00,,,-99.99,,2013-03-14 00:32:00,
2013-03-13 20:42:00,28.0,25.0,-100.00,SE,124,6.0,12.0,86,0.00,,,-99.99,,2013-03-14 00:42:00,
2013-03-13 20:52:00,28.0,25.0,-100.00,ESE,115,7.0,12.0,85,0.00,,,-99.99,,2013-03-14 00:52:00,
2013-03-13 21:02:00,29.0,27.0,-100.00,SE,141,6.0,12.0,84,0.00,,,-99.99,,2013-03-14 01:02:00,
2013-03-13 21:12:00,29.0,25.0,-100.00,SE,129,5.0,12.0,84,0.00,,,-99.99,,2013-03-14 01:12:00,
2013-03-13 21:23:00,27.0,23.0,-100.00,East,87,4.0,12.0,82,0.00,,,-99.99,,2013-03-14 01:23:00,
2013-03-13 21:32:00,28.0,23.0,-100.00,SE,125,3.0,12.0,82,0.00,,,-99.99,,2013-03-14 01:32:00,
2013-03-13 21:42:00,30.0,27.0,-100.00,ESE,120,3.0,12.0,82,0.00,,,-99.99,,2013-03-14 01:42:00,
2013-03-13 21:52:00,29.0,25.0,-100.00,ESE,108,4.0,12.0,81,0.00,,,-99.99,,2013-03-14 01:52:00,
2013-03-13 22:02:00,29.0,25.0,-100.00,East,97,3.0,12.0,80,0.00,,,-99.99,,2013-03-14 02:02:00,
2013-03-13 22:12:00,30.0,25.0,-100.00,ESE,110,4.0,12.0,78,0.00,,,-99.99,,2013-03-14 02:12:00,
2013-03-13 22:22:00,29.0,23.0,-100.00,SE,127,5.0,12.0,78,0.00,,,-99.99,,2013-03-14 02:22:00,
2013-03-13 22:32:00,29.0,25.0,-100.00,ESE,104,4.0,12.0,78,0.00,,,-99.99,,2013-03-14 02:32:00,
2013-03-13 22:42:00,29.0,25.0,-100.00,ESE,104,4.0,12.0,78,0.00,,,-99.99,,2013-03-14 02:42:00,
2013-03-13 22:52:00,29.0,25.0,-100.00,ESE,104,4.0,12.0,78,0.00,,,-99.99,,2013-03-14 02:52:00,
2013-03-13 23:02:00,29.0,23.0,-100.00,ESE,121,4.0,12.0,76,0.00,,,-99.99,,2013-03-14 03:02:00,
2013-03-13 23:12:00,29.0,23.0,-100.00,SE,141,4.0,12.0,75,0.00,,,-99.99,,2013-03-14 03:12:00,
2013-03-13 23:23:00,30.0,25.0,-100.00,ESE,122,5.0,12.0,75,0.00,,,-99.99,,2013-03-14 03:23:00,
2013-03-13 23:32:00,30.0,25.0,-100.00,SE,129,7.0,12.0,75,0.00,,,-99.99,,2013-03-14 03:32:00,
2013-03-13 23:42:00,31.0,25.0,-100.00,SE,128,6.0,12.0,75,0.00,,,-99.99,,2013-03-14 03:42:00,
2013-03-13 23:52:00,32.0,25.0,-100.00,SE,142,6.0,12.0,73,0.00,,,-99.99,,2013-03-14 03:52:00,